Chipping Ongar, United Kingdom
Current Conditions -  °F | °C
As of 3:20 AM on Sunday 23 Nov 2014 (Local Time) from EGSS Reporting Station
Drizzle Drizzle  
Wind Chill: 52°   Ceiling: 1400
Heat Index: 52°   Visibility: 1.5mi
Dew Point: 52°   Wind: 6mph
Humidity: 100%   Direction: 20°NNE
Pressure: 29.94"   Gusts: NA
Location:  51.7°N, 0.25°E
Report Text: EGSS 230320Z 02005KT 2400 -DZ FEW002 OVC014 11/11 Q1014
Loading
Personal Weather Stations






























Interactive Weather Map New forecast layout! Learn more

10-Day Weather Forecast

Advertisements
Track Severe Weather on mobile